createdAt,value
2017-07-25T00:01:50.232Z,26.92
2017-07-25T00:04:17.838Z,26.96
2017-07-25T00:06:45.430Z,26.95
2017-07-25T00:09:13.139Z,26.82
2017-07-25T00:11:40.698Z,26.86
2017-07-25T00:14:08.384Z,26.80
2017-07-25T00:16:35.974Z,26.92
2017-07-25T00:19:03.850Z,26.96
2017-07-25T00:21:31.767Z,26.91
2017-07-25T00:23:59.418Z,26.92
2017-07-25T00:26:27.044Z,26.76
2017-07-25T00:28:55.524Z,26.67
2017-07-25T00:31:23.135Z,26.17
2017-07-25T00:33:50.839Z,26.41
2017-07-25T00:36:18.718Z,26.62
2017-07-25T00:38:46.510Z,26.65
2017-07-25T00:41:14.360Z,26.54
2017-07-25T00:43:41.936Z,26.47
2017-07-25T00:46:09.575Z,26.35
2017-07-25T00:48:37.313Z,26.28
2017-07-25T00:51:04.976Z,26.26
2017-07-25T00:53:32.878Z,26.34
2017-07-25T00:56:00.470Z,26.36
2017-07-25T00:58:28.180Z,26.26
2017-07-25T01:00:55.935Z,26.10
2017-07-25T01:03:23.563Z,26.00
2017-07-25T01:05:51.349Z,25.89
2017-07-25T01:08:18.933Z,25.80
2017-07-25T01:10:46.481Z,25.73
2017-07-25T01:13:14.028Z,25.79
2017-07-25T01:15:42.236Z,25.57
2017-07-25T01:18:09.855Z,25.57
2017-07-25T01:20:37.433Z,25.54
2017-07-25T01:23:05.682Z,25.84
2017-07-25T01:25:33.345Z,25.87
2017-07-25T01:28:00.951Z,25.91
2017-07-25T01:30:28.643Z,25.95
2017-07-25T01:32:56.226Z,26.03
2017-07-25T01:35:23.816Z,26.00
2017-07-25T01:37:51.475Z,25.99
2017-07-25T01:40:19.111Z,26.03
2017-07-25T01:42:46.716Z,25.97
2017-07-25T01:45:14.324Z,26.03
2017-07-25T01:47:41.929Z,25.77
2017-07-25T01:50:09.546Z,25.88
2017-07-25T01:52:37.232Z,25.80
2017-07-25T01:55:04.886Z,25.88
2017-07-25T01:57:32.458Z,25.96
2017-07-25T02:00:00.100Z,25.99
2017-07-25T02:02:28.566Z,25.98
2017-07-25T02:04:56.125Z,25.94
2017-07-25T02:07:23.894Z,25.88
2017-07-25T02:09:51.501Z,25.84
2017-07-25T02:12:19.093Z,26.00
2017-07-25T02:14:46.739Z,26.05
2017-07-25T02:17:14.975Z,25.93
2017-07-25T02:19:43.555Z,26.00
2017-07-25T02:22:11.129Z,25.94
2017-07-25T02:24:38.769Z,25.88
2017-07-25T02:27:06.472Z,25.61
2017-07-25T02:29:34.137Z,25.80
2017-07-25T02:32:01.785Z,25.77
2017-07-25T02:34:29.561Z,25.77
2017-07-25T02:36:57.448Z,25.88
2017-07-25T02:39:25.274Z,25.83
2017-07-25T02:41:52.899Z,25.90
2017-07-25T02:44:20.536Z,25.97
2017-07-25T02:46:48.240Z,25.96
2017-07-25T02:49:16.329Z,25.97
2017-07-25T02:51:43.973Z,25.96
2017-07-25T02:54:11.614Z,25.94
2017-07-25T02:56:39.235Z,25.79
2017-07-25T02:59:06.845Z,25.84
2017-07-25T03:01:34.592Z,25.75
2017-07-25T03:04:02.283Z,25.59
2017-07-25T03:06:30.140Z,25.47
2017-07-25T03:08:57.734Z,25.39
2017-07-25T03:11:25.509Z,25.46
2017-07-25T03:13:54.068Z,25.24
2017-07-25T03:16:21.719Z,25.00
2017-07-25T03:18:49.398Z,25.27
2017-07-25T03:21:17.237Z,25.26
2017-07-25T03:24:03.932Z,25.23
2017-07-25T03:26:31.578Z,24.84
2017-07-25T03:28:59.245Z,24.74
2017-07-25T03:31:27.134Z,24.56
2017-07-25T03:33:54.742Z,24.52
2017-07-25T03:36:22.356Z,24.37
2017-07-25T03:38:50.009Z,24.45
2017-07-25T03:41:17.569Z,24.27
2017-07-25T03:43:45.416Z,24.10
2017-07-25T03:46:13.526Z,24.06
2017-07-25T03:48:41.151Z,23.97
2017-07-25T03:51:08.745Z,23.93
2017-07-25T03:53:36.392Z,24.11
2017-07-25T03:56:04.919Z,24.15
2017-07-25T03:58:32.491Z,24.12
2017-07-25T04:01:00.102Z,24.02
2017-07-25T04:03:27.771Z,24.25
2017-07-25T04:05:55.382Z,24.13
2017-07-25T04:08:23.943Z,24.13
2017-07-25T04:10:52.255Z,24.21
2017-07-25T04:13:20.788Z,24.18
2017-07-25T04:15:48.661Z,24.25
2017-07-25T04:18:16.356Z,24.31
2017-07-25T04:20:47.480Z,24.34
2017-07-25T04:23:15.166Z,24.37
2017-07-25T04:25:43.614Z,24.39
2017-07-25T04:28:14.031Z,24.37
2017-07-25T04:30:43.963Z,24.42
2017-07-25T04:33:12.559Z,24.57
2017-07-25T04:35:43.252Z,24.68
2017-07-25T04:38:23.313Z,24.72
2017-07-25T04:40:52.717Z,24.78
2017-07-25T04:43:29.018Z,24.93
2017-07-25T04:45:56.822Z,24.86
2017-07-25T04:48:24.629Z,25.13
2017-07-25T04:50:52.204Z,25.26
2017-07-25T04:53:19.833Z,25.33
2017-07-25T04:55:47.468Z,25.43
2017-07-25T04:58:15.013Z,25.55
2017-07-25T05:00:42.989Z,25.68
2017-07-25T05:03:10.876Z,25.52
2017-07-25T05:05:38.752Z,25.85
2017-07-25T05:08:06.582Z,25.97
2017-07-25T05:10:34.136Z,25.99
2017-07-25T05:13:01.730Z,25.91
2017-07-25T05:15:29.301Z,26.07
2017-07-25T05:18:04.651Z,26.01
2017-07-25T05:20:32.262Z,25.92
2017-07-25T05:22:59.851Z,26.05
2017-07-25T05:25:27.486Z,26.13
2017-07-25T05:27:55.794Z,26.51
2017-07-25T05:30:23.391Z,26.73
2017-07-25T05:32:51.155Z,26.79
2017-07-25T05:35:18.788Z,26.69
2017-07-25T05:37:46.483Z,26.96
2017-07-25T05:40:15.002Z,27.23
2017-07-25T05:42:42.596Z,27.37
2017-07-25T05:45:10.193Z,27.40
2017-07-25T05:47:37.852Z,27.82
2017-07-25T05:50:05.469Z,28.10
2017-07-25T05:52:33.085Z,27.80
2017-07-25T05:55:00.648Z,27.79
2017-07-25T05:57:28.466Z,27.84
2017-07-25T05:59:56.112Z,27.56
2017-07-25T06:02:23.746Z,27.63
2017-07-25T06:04:51.312Z,27.42
2017-07-25T06:07:18.895Z,27.35
2017-07-25T06:09:47.069Z,27.74
2017-07-25T06:12:14.651Z,27.77
2017-07-25T06:14:42.233Z,27.62
2017-07-25T06:17:10.690Z,27.55
2017-07-25T06:19:38.248Z,27.57
2017-07-25T06:22:05.817Z,28.09
2017-07-25T06:24:33.433Z,28.72
2017-07-25T06:27:01.059Z,29.21
2017-07-25T06:29:28.618Z,29.83
2017-07-25T06:31:56.203Z,29.99
2017-07-25T06:34:23.772Z,30.20
2017-07-25T06:36:51.421Z,30.69
2017-07-25T06:39:19.080Z,30.79
2017-07-25T06:41:46.856Z,30.26
2017-07-25T06:44:14.624Z,30.50
2017-07-25T06:46:42.258Z,30.45
2017-07-25T06:49:09.816Z,30.79
2017-07-25T06:51:37.642Z,30.43
2017-07-25T06:54:05.239Z,30.40
2017-07-25T06:56:32.820Z,30.24
2017-07-25T06:59:00.842Z,30.99
2017-07-25T07:01:28.420Z,31.48
2017-07-25T07:03:56.016Z,31.37
2017-07-25T07:06:23.554Z,31.69
2017-07-25T07:08:51.194Z,32.31
2017-07-25T07:11:18.736Z,32.68
2017-07-25T07:13:47.270Z,33.16
2017-07-25T07:16:14.856Z,33.47
2017-07-25T07:18:42.631Z,33.57
2017-07-25T07:21:10.226Z,32.98
2017-07-25T07:23:38.219Z,32.61
2017-07-25T07:26:05.786Z,33.07
2017-07-25T07:28:33.400Z,33.66
2017-07-25T07:31:01.017Z,33.96
2017-07-25T07:33:28.766Z,34.44
2017-07-25T07:35:56.370Z,34.77
2017-07-25T07:38:23.975Z,34.68
2017-07-25T07:40:51.602Z,34.93
2017-07-25T07:43:19.243Z,35.49
2017-07-25T07:45:46.837Z,34.78
2017-07-25T07:48:14.422Z,34.17
2017-07-25T07:50:42.262Z,34.06
2017-07-25T07:53:09.875Z,34.23
2017-07-25T07:55:37.462Z,35.01
2017-07-25T07:58:05.889Z,34.52
2017-07-25T08:00:33.572Z,33.75
2017-07-25T08:03:01.153Z,33.38
2017-07-25T08:05:28.935Z,32.75
2017-07-25T08:07:56.522Z,33.36
2017-07-25T08:10:24.273Z,33.76
2017-07-25T08:12:51.866Z,33.83
2017-07-25T08:15:19.469Z,33.84
2017-07-25T08:17:47.228Z,32.10
2017-07-25T08:20:14.779Z,32.46
2017-07-25T08:22:42.394Z,32.48
2017-07-25T08:25:09.988Z,33.33
2017-07-25T08:27:37.511Z,33.59
2017-07-25T08:30:07.846Z,33.99
2017-07-25T08:32:35.506Z,33.33
2017-07-25T08:35:03.058Z,32.35
2017-07-25T08:37:30.727Z,32.62
2017-07-25T08:39:58.281Z,32.43
2017-07-25T08:42:25.867Z,32.66
2017-07-25T08:44:53.486Z,32.69
2017-07-25T08:47:21.225Z,32.45
2017-07-25T08:49:48.838Z,32.41
2017-07-25T08:52:16.433Z,32.66
2017-07-25T08:54:43.957Z,33.38
2017-07-25T08:57:11.551Z,31.79
2017-07-25T08:59:39.834Z,30.15
2017-07-25T09:02:07.458Z,28.15
2017-07-25T09:04:35.096Z,26.31
2017-07-25T09:07:02.709Z,25.59
2017-07-25T09:09:30.320Z,25.07
2017-07-25T09:11:57.839Z,24.90
2017-07-25T09:14:25.401Z,24.71
2017-07-25T09:16:52.981Z,24.81
2017-07-25T09:19:20.591Z,24.63
2017-07-25T09:21:48.217Z,24.81
2017-07-25T09:24:15.802Z,25.06
2017-07-25T09:26:43.390Z,25.70
2017-07-25T09:29:10.986Z,25.70
2017-07-25T09:31:38.579Z,25.62
2017-07-25T09:34:06.128Z,25.75
2017-07-25T09:36:33.723Z,25.88
2017-07-25T09:39:01.307Z,25.68
2017-07-25T09:41:28.825Z,25.65
2017-07-25T09:43:56.344Z,25.68
2017-07-25T09:46:25.129Z,26.16
2017-07-25T09:48:52.736Z,26.71
2017-07-25T09:51:21.446Z,27.23
2017-07-25T09:53:48.986Z,27.50
2017-07-25T09:56:16.527Z,27.42
2017-07-25T09:58:44.354Z,27.71
2017-07-25T10:01:12.139Z,27.85
2017-07-25T10:03:39.747Z,28.04
2017-07-25T10:06:07.302Z,28.08
2017-07-25T10:08:34.907Z,28.26
2017-07-25T10:11:02.470Z,28.69
2017-07-25T10:13:30.013Z,29.10
2017-07-25T10:15:57.586Z,29.37
2017-07-25T10:18:25.190Z,29.70
2017-07-25T10:20:52.791Z,29.73
2017-07-25T10:23:20.377Z,29.82
2017-07-25T10:25:48.035Z,30.01
2017-07-25T10:28:15.607Z,29.95
2017-07-25T10:30:43.234Z,30.06
2017-07-25T10:33:10.885Z,30.37
2017-07-25T10:35:38.461Z,30.60
2017-07-25T10:38:06.051Z,30.92
2017-07-25T10:40:33.610Z,31.06
2017-07-25T10:43:01.182Z,31.30
2017-07-25T10:45:28.762Z,31.26
2017-07-25T10:47:56.348Z,31.40
2017-07-25T10:50:24.163Z,31.26
2017-07-25T10:52:51.780Z,31.33
2017-07-25T10:55:19.667Z,31.14
2017-07-25T10:57:47.224Z,31.30
2017-07-25T11:00:14.982Z,31.54
2017-07-25T11:02:42.737Z,31.59
2017-07-25T11:05:10.337Z,31.70
2017-07-25T11:07:37.942Z,31.68
2017-07-25T11:10:05.706Z,31.78
2017-07-25T11:12:33.305Z,31.74
2017-07-25T11:15:01.136Z,32.15
2017-07-25T11:17:28.668Z,32.13
2017-07-25T11:19:57.020Z,32.42
2017-07-25T11:22:24.603Z,32.46
2017-07-25T11:24:52.167Z,32.50
2017-07-25T11:27:19.904Z,32.49
2017-07-25T11:29:47.523Z,32.70
2017-07-25T11:32:15.102Z,32.77
2017-07-25T11:34:43.339Z,32.82
2017-07-25T11:37:10.941Z,32.78
2017-07-25T11:39:38.543Z,32.57
2017-07-25T11:42:06.090Z,32.65
2017-07-25T11:44:33.673Z,32.95
2017-07-25T11:47:01.264Z,33.16
2017-07-25T11:49:29.120Z,33.23
2017-07-25T11:51:56.644Z,32.77
2017-07-25T11:54:24.223Z,33.07
2017-07-25T11:56:51.737Z,33.12
2017-07-25T11:59:19.247Z,33.19
2017-07-25T12:01:46.897Z,33.12
2017-07-25T12:04:14.447Z,33.12
2017-07-25T12:06:41.958Z,32.68
2017-07-25T12:09:09.544Z,32.42
2017-07-25T12:11:37.298Z,32.24
2017-07-25T12:14:05.051Z,31.88
2017-07-25T12:16:32.648Z,31.53
2017-07-25T12:19:00.191Z,31.52
2017-07-25T12:21:45.162Z,31.42
2017-07-25T12:24:13.506Z,31.11
2017-07-25T12:26:41.021Z,30.72
2017-07-25T12:29:08.576Z,30.61
2017-07-25T12:31:36.269Z,30.41
2017-07-25T12:34:03.810Z,30.20
2017-07-25T12:36:31.862Z,30.21
2017-07-25T12:38:59.422Z,30.19
2017-07-25T12:41:26.963Z,30.05
2017-07-25T12:43:54.505Z,29.87
2017-07-25T12:46:22.072Z,29.77
2017-07-25T12:48:49.586Z,29.76
2017-07-25T12:51:17.293Z,29.92
2017-07-25T12:53:45.193Z,30.25
2017-07-25T12:56:12.764Z,30.54
2017-07-25T12:58:40.351Z,30.53
2017-07-25T13:01:19.606Z,30.24
2017-07-25T13:03:47.392Z,30.26
2017-07-25T13:06:15.262Z,30.19
2017-07-25T13:08:42.829Z,29.98
2017-07-25T13:11:10.591Z,30.05
2017-07-25T13:13:38.437Z,29.91
2017-07-25T13:16:06.038Z,29.91
2017-07-25T13:18:33.605Z,29.91
2017-07-25T13:21:01.186Z,29.98
2017-07-25T13:23:28.782Z,29.99
2017-07-25T13:25:56.852Z,29.93
2017-07-25T13:28:24.670Z,29.96
2017-07-25T13:30:52.877Z,29.90
2017-07-25T13:33:20.503Z,29.86
2017-07-25T13:35:48.091Z,29.76
2017-07-25T13:38:15.718Z,29.77
2017-07-25T13:40:43.253Z,29.78
2017-07-25T13:43:10.994Z,29.83
2017-07-25T13:45:38.594Z,29.77
2017-07-25T13:48:06.224Z,29.62
2017-07-25T13:50:33.801Z,29.21
2017-07-25T13:53:01.669Z,29.46
2017-07-25T13:55:29.346Z,29.88
2017-07-25T13:57:56.945Z,30.01
2017-07-25T14:00:24.595Z,29.88
2017-07-25T14:02:52.405Z,29.88
2017-07-25T14:05:20.581Z,30.06
2017-07-25T14:07:48.150Z,30.04
2017-07-25T14:10:15.733Z,30.00
2017-07-25T14:12:43.343Z,30.00
2017-07-25T14:15:11.369Z,30.18
2017-07-25T14:17:38.978Z,30.32
2017-07-25T14:20:06.603Z,30.29
2017-07-25T14:22:34.657Z,30.45
2017-07-25T14:25:02.316Z,30.43
2017-07-25T14:27:29.926Z,30.54
2017-07-25T14:29:57.560Z,30.50
2017-07-25T14:32:25.998Z,30.53
2017-07-25T14:34:53.536Z,30.52
2017-07-25T14:37:21.080Z,30.52
2017-07-25T14:39:48.661Z,30.51
2017-07-25T14:42:16.442Z,30.56
2017-07-25T14:44:44.039Z,30.51
2017-07-25T14:47:11.603Z,30.31
2017-07-25T14:49:39.167Z,30.37
2017-07-25T14:52:06.820Z,30.32
2017-07-25T14:54:34.425Z,30.33
2017-07-25T14:57:02.683Z,30.37
2017-07-25T14:59:31.375Z,30.26
2017-07-25T15:01:59.217Z,30.08
2017-07-25T15:04:26.773Z,30.01
2017-07-25T15:06:54.332Z,29.96
2017-07-25T15:09:21.940Z,29.68
2017-07-25T15:11:49.473Z,29.41
2017-07-25T15:14:17.038Z,29.24
2017-07-25T15:16:44.624Z,28.94
2017-07-25T15:19:12.182Z,28.85
2017-07-25T15:21:40.557Z,28.64
2017-07-25T15:24:08.159Z,28.28
2017-07-25T15:26:35.771Z,27.98
2017-07-25T15:29:03.468Z,26.47
2017-07-25T15:31:31.776Z,25.30
2017-07-25T15:33:59.336Z,23.35
2017-07-25T15:36:26.971Z,23.02
2017-07-25T15:38:54.584Z,23.37
2017-07-25T15:41:22.726Z,23.44
2017-07-25T15:43:50.294Z,23.44
2017-07-25T15:46:17.865Z,23.61
2017-07-25T15:48:45.444Z,23.62
2017-07-25T15:51:13.049Z,23.48
2017-07-25T15:53:40.958Z,23.25
2017-07-25T15:56:09.258Z,22.98
2017-07-25T15:58:36.850Z,22.60
2017-07-25T16:01:04.449Z,22.96
2017-07-25T16:03:32.036Z,23.04
2017-07-25T16:05:59.793Z,23.07
2017-07-25T16:08:27.380Z,23.20
2017-07-25T16:10:54.914Z,23.34
2017-07-25T16:13:22.520Z,23.61
2017-07-25T16:15:50.211Z,23.54
2017-07-25T16:18:17.950Z,23.55
2017-07-25T16:20:46.316Z,23.70
2017-07-25T16:23:14.363Z,23.62
2017-07-25T16:25:41.899Z,23.53
2017-07-25T16:28:09.462Z,23.63
2017-07-25T16:30:37.896Z,23.78
2017-07-25T16:33:05.511Z,23.80
2017-07-25T16:35:33.123Z,23.93
2017-07-25T16:38:00.699Z,23.97
2017-07-25T16:40:28.470Z,23.89
2017-07-25T16:42:56.224Z,23.56
2017-07-25T16:45:23.815Z,23.07
2017-07-25T16:47:51.479Z,22.99
2017-07-25T16:50:19.001Z,23.01
2017-07-25T16:52:47.315Z,23.27
2017-07-25T16:55:16.446Z,23.56
2017-07-25T16:57:44.011Z,23.67
2017-07-25T17:00:11.864Z,23.55
2017-07-25T17:02:39.418Z,23.71
2017-07-25T17:05:06.984Z,23.82
2017-07-25T17:07:34.610Z,24.02
2017-07-25T17:10:02.236Z,23.90
2017-07-25T17:12:29.761Z,23.89
2017-07-25T17:14:57.377Z,23.10
2017-07-25T17:17:25.118Z,22.62
2017-07-25T17:19:52.688Z,22.95
2017-07-25T17:22:20.276Z,23.35
2017-07-25T17:24:47.882Z,23.22
2017-07-25T17:27:15.473Z,23.03
2017-07-25T17:29:43.090Z,22.94
2017-07-25T17:32:10.678Z,22.62
2017-07-25T17:34:38.226Z,22.87
2017-07-25T17:37:05.783Z,22.97
2017-07-25T17:39:33.370Z,23.26
2017-07-25T17:42:00.948Z,23.47
2017-07-25T17:44:28.502Z,23.27
2017-07-25T17:46:56.265Z,23.35
2017-07-25T17:49:24.611Z,23.58
2017-07-25T17:51:52.203Z,23.76
2017-07-25T17:54:20.114Z,23.84
2017-07-25T17:56:47.907Z,23.85
2017-07-25T17:59:17.344Z,23.89
2017-07-25T18:01:45.061Z,23.87
2017-07-25T18:04:13.682Z,23.98
2017-07-25T18:06:41.297Z,24.16
2017-07-25T18:09:08.921Z,24.20
2017-07-25T18:11:37.187Z,24.23
2017-07-25T18:14:04.868Z,24.31
2017-07-25T18:16:32.549Z,24.29
2017-07-25T18:19:00.360Z,24.15
2017-07-25T18:21:27.969Z,24.13
2017-07-25T18:23:55.667Z,23.95
2017-07-25T18:26:23.714Z,24.18
2017-07-25T18:28:51.308Z,24.15
2017-07-25T18:31:18.915Z,24.16
2017-07-25T18:33:46.571Z,24.11
2017-07-25T18:36:14.223Z,24.17
2017-07-25T18:38:41.919Z,24.02
2017-07-25T18:41:09.491Z,23.94
2017-07-25T18:43:37.266Z,24.14
2017-07-25T18:46:05.493Z,24.31
2017-07-25T18:48:33.028Z,24.42
2017-07-25T18:51:01.380Z,24.22
2017-07-25T18:53:28.986Z,23.81
2017-07-25T18:55:56.514Z,24.05
2017-07-25T18:58:24.125Z,24.16
2017-07-25T19:00:51.703Z,24.12
2017-07-25T19:03:19.233Z,24.04
2017-07-25T19:05:46.892Z,24.04
2017-07-25T19:08:14.515Z,24.07
2017-07-25T19:10:42.084Z,24.10
2017-07-25T19:13:09.768Z,23.83
2017-07-25T19:15:37.393Z,23.57
2017-07-25T19:18:05.409Z,23.48
2017-07-25T19:20:33.216Z,23.07
2017-07-25T19:23:00.842Z,22.88
2017-07-25T19:25:28.390Z,22.74
2017-07-25T19:27:56.287Z,22.80
2017-07-25T19:30:24.110Z,22.27
2017-07-25T19:32:51.739Z,22.72
2017-07-25T19:35:19.327Z,23.23
2017-07-25T19:37:46.912Z,23.48
2017-07-25T19:40:15.455Z,23.56
2017-07-25T19:42:43.001Z,23.51
2017-07-25T19:45:10.679Z,23.28
2017-07-25T19:47:38.254Z,23.25
2017-07-25T19:50:05.792Z,23.35
2017-07-25T19:52:33.471Z,23.53
2017-07-25T19:55:01.049Z,23.58
2017-07-25T19:57:28.634Z,23.55
2017-07-25T19:59:56.274Z,23.54
2017-07-25T20:02:24.180Z,23.55
2017-07-25T20:04:51.799Z,23.52
2017-07-25T20:07:19.575Z,23.53
2017-07-25T20:09:47.240Z,23.40
2017-07-25T20:12:14.886Z,23.43
2017-07-25T20:14:42.507Z,23.48
2017-07-25T20:17:11.012Z,23.48
2017-07-25T20:19:38.611Z,23.55
2017-07-25T20:22:06.367Z,23.70
2017-07-25T20:24:33.985Z,23.59
2017-07-25T20:27:01.591Z,23.58
2017-07-25T20:29:29.155Z,23.56
2017-07-25T20:31:56.761Z,23.62
2017-07-25T20:34:24.402Z,23.50
2017-07-25T20:36:52.168Z,23.65
2017-07-25T20:39:19.984Z,23.66
2017-07-25T20:41:47.585Z,23.64
2017-07-25T20:44:15.133Z,23.48
2017-07-25T20:46:42.685Z,23.45
2017-07-25T20:49:10.250Z,23.38
2017-07-25T20:51:38.036Z,23.32
2017-07-25T20:54:05.621Z,23.13
2017-07-25T20:56:33.169Z,23.15
2017-07-25T20:59:00.854Z,23.09
2017-07-25T21:01:28.491Z,23.23
2017-07-25T21:03:56.054Z,23.04
2017-07-25T21:06:23.701Z,23.11
2017-07-25T21:08:51.302Z,23.03
2017-07-25T21:11:19.073Z,23.00
2017-07-25T21:13:46.729Z,22.94
2017-07-25T21:16:14.287Z,22.96
2017-07-25T21:18:41.811Z,22.96
2017-07-25T21:21:09.397Z,23.02
2017-07-25T21:23:36.995Z,23.07
2017-07-25T21:26:04.603Z,22.98
2017-07-25T21:28:32.276Z,23.08
2017-07-25T21:30:59.891Z,23.05
2017-07-25T21:33:27.430Z,23.19
2017-07-25T21:35:55.111Z,23.10
2017-07-25T21:38:22.694Z,23.01
2017-07-25T21:40:50.253Z,22.97
2017-07-25T21:43:26.752Z,22.94
2017-07-25T21:45:54.356Z,22.87
2017-07-25T21:48:21.953Z,22.95
2017-07-25T21:50:49.651Z,23.06
2017-07-25T21:53:18.302Z,23.18
2017-07-25T21:55:46.149Z,22.98
2017-07-25T21:58:13.743Z,22.93
2017-07-25T22:00:42.278Z,22.98
2017-07-25T22:03:21.606Z,22.93
2017-07-25T22:05:49.268Z,22.83
2017-07-25T22:08:16.892Z,22.81
2017-07-25T22:10:44.486Z,22.80
2017-07-25T22:13:12.370Z,22.64
2017-07-25T22:15:39.988Z,22.76
2017-07-25T22:18:07.747Z,22.82
2017-07-25T22:20:35.382Z,22.89
2017-07-25T22:23:03.224Z,22.85
2017-07-25T22:25:30.814Z,22.94
2017-07-25T22:27:58.448Z,23.00
2017-07-25T22:30:26.117Z,23.01
2017-07-25T22:32:53.855Z,23.04
2017-07-25T22:35:21.511Z,22.90
2017-07-25T22:37:49.141Z,22.79
2017-07-25T22:40:16.729Z,22.75
2017-07-25T22:42:44.470Z,23.00
2017-07-25T22:45:12.073Z,23.03
2017-07-25T22:47:39.665Z,22.97
2017-07-25T22:50:07.254Z,22.85
2017-07-25T22:52:34.891Z,22.83
2017-07-25T22:55:02.511Z,22.73
2017-07-25T22:57:30.064Z,22.73
2017-07-25T22:59:57.653Z,22.71
2017-07-25T23:02:25.267Z,22.73
2017-07-25T23:04:52.844Z,22.75
2017-07-25T23:07:20.455Z,22.70
2017-07-25T23:09:48.077Z,22.61
2017-07-25T23:12:15.709Z,22.56
2017-07-25T23:14:43.617Z,22.53
2017-07-25T23:17:11.238Z,22.40
2017-07-25T23:19:39.644Z,22.47
2017-07-25T23:22:07.240Z,22.53
2017-07-25T23:24:35.016Z,22.65
2017-07-25T23:27:02.813Z,22.52
2017-07-25T23:29:30.375Z,22.58
2017-07-25T23:31:57.999Z,22.52
2017-07-25T23:34:25.631Z,22.53
2017-07-25T23:36:53.213Z,22.26
2017-07-25T23:39:20.826Z,22.38
2017-07-25T23:41:48.379Z,22.51
2017-07-25T23:44:16.138Z,22.37
2017-07-25T23:46:43.774Z,22.47
2017-07-25T23:49:11.351Z,22.38
2017-07-25T23:51:38.987Z,22.43
2017-07-25T23:54:06.618Z,22.48
2017-07-25T23:56:34.476Z,22.40
2017-07-25T23:59:02.973Z,22.36
